首页
METAR-TAF:

METAR-TAF

机场 :

贝拉库拉, 不列颠哥伦比亚, 加拿大

纬度: 52-23N, 经度: 126-35W, 海拔: 35米

当前天气观测

该预报发布于28分钟前的13:00 UTC
风速2节,风向多变
温度 7°C
湿度 100%
气压 1018 hPa
能見度: 24.1公里
天空无云

METAR: CYBD 221300Z VRB02KT 15SM SKC 07/07 A3007 RMK MIFG ON RWY SLP185

时间: 06:28 (13:28 UTC)


TAF: 丢失

超过4000个机场的气象观测和天气预报(METAR&TAF报告)。

可查询的气象台以黄色和红色小点在地图上表示。

将鼠标移到小点上方,可查看气象台名称。

然后点击查看天气观测和预报。

如需切换地图:点击带黑十字的绿色按钮放大地图;点击带横线的绿色按钮缩小地图;或者点击绿色箭头查看邻近地区的地图。


METAR-TAF: